createdAt,value
2018-05-02T00:00:34.079Z,2.93
2018-05-02T00:03:12.071Z,3.37
2018-05-02T00:05:49.187Z,3.20
2018-05-02T00:08:25.885Z,2.70
2018-05-02T00:11:02.915Z,3.30
2018-05-02T00:13:39.487Z,3.63
2018-05-02T00:16:16.834Z,3.80
2018-05-02T00:18:57.128Z,3.87
2018-05-02T00:21:34.180Z,4.20
2018-05-02T00:24:11.838Z,3.90
2018-05-02T00:26:48.309Z,3.47
2018-05-02T00:29:24.741Z,3.70
2018-05-02T00:32:02.027Z,3.60
2018-05-02T00:34:42.266Z,3.77
2018-05-02T00:37:23.375Z,3.30
2018-05-02T00:39:59.938Z,2.73
2018-05-02T00:42:39.114Z,3.03
2018-05-02T00:45:16.063Z,2.87
2018-05-02T00:47:52.653Z,3.20
2018-05-02T00:50:29.426Z,3.23
2018-05-02T00:53:05.842Z,3.00
2018-05-02T00:55:42.375Z,2.50
2018-05-02T00:58:23.526Z,2.90
2018-05-02T01:01:00.910Z,2.90
2018-05-02T01:03:39.145Z,2.80
2018-05-02T01:19:06.061Z,2.70
2018-05-02T01:21:42.848Z,3.20
2018-05-02T01:24:20.441Z,3.40
2018-05-02T01:26:57.916Z,3.07
2018-05-02T01:29:35.274Z,3.00
2018-05-02T01:32:12.359Z,3.53
2018-05-02T01:34:49.121Z,3.70
2018-05-02T01:37:25.680Z,3.47
2018-05-02T01:40:05.696Z,3.57
2018-05-02T01:42:42.365Z,3.30
2018-05-02T01:45:18.709Z,3.40
2018-05-02T01:47:56.139Z,3.00
2018-05-02T01:50:32.597Z,3.23
2018-05-02T01:53:09.936Z,3.10
2018-05-02T01:55:49.349Z,3.53
2018-05-02T01:58:25.959Z,3.30
2018-05-02T02:01:02.784Z,3.70
2018-05-02T02:03:39.692Z,3.50
2018-05-02T02:06:16.272Z,3.40
2018-05-02T02:08:52.916Z,3.10
2018-05-02T02:11:34.159Z,3.50
2018-05-02T02:14:14.308Z,3.13
2018-05-02T02:16:50.830Z,3.60
2018-05-02T02:19:30.420Z,3.17
2018-05-02T02:22:07.297Z,2.90
2018-05-02T02:24:43.703Z,2.97
2018-05-02T02:27:20.548Z,3.20
2018-05-02T02:29:57.079Z,3.40
2018-05-02T02:32:33.464Z,4.13
2018-05-02T02:35:15.967Z,3.77
2018-05-02T02:37:52.579Z,3.70
2018-05-02T02:40:29.494Z,3.57
2018-05-02T02:43:06.383Z,3.63
2018-05-02T02:45:42.679Z,2.97
2018-05-02T02:48:19.401Z,3.13
2018-05-02T02:50:59.117Z,3.17
2018-05-02T02:53:35.788Z,3.20
2018-05-02T02:56:15.394Z,2.70
2018-05-02T02:58:57.008Z,2.77
2018-05-02T03:01:35.643Z,2.80
2018-05-02T03:04:12.263Z,2.83
2018-05-02T03:06:49.559Z,2.93
2018-05-02T03:09:26.680Z,2.80
2018-05-02T03:12:04.627Z,2.40
2018-05-02T03:14:43.457Z,2.30
2018-05-02T03:17:20.603Z,2.90
2018-05-02T03:19:57.360Z,2.70
2018-05-02T03:22:34.727Z,2.80
2018-05-02T03:25:11.557Z,2.90
2018-05-02T03:27:48.064Z,3.00
2018-05-02T03:30:25.331Z,3.10
2018-05-02T03:33:01.995Z,3.00
2018-05-02T03:35:40.819Z,3.53
2018-05-02T03:38:19.830Z,3.50
2018-05-02T03:40:56.341Z,3.33
2018-05-02T03:43:32.637Z,3.33
2018-05-02T03:46:09.381Z,3.53
2018-05-02T03:48:46.108Z,4.03
2018-05-02T03:51:23.391Z,3.70
2018-05-02T03:54:02.415Z,3.83
2018-05-02T03:56:39.488Z,4.27
2018-05-02T03:59:16.111Z,4.30
2018-05-02T04:04:04.202Z,3.87
2018-05-02T04:06:50.424Z,4.33
2018-05-02T04:09:27.232Z,4.63
2018-05-02T04:12:08.986Z,4.13
2018-05-02T04:14:47.076Z,4.10
2018-05-02T04:17:25.568Z,3.33
2018-05-02T04:20:06.652Z,2.77
2018-05-02T04:22:45.968Z,3.87
2018-05-02T04:25:22.837Z,3.97
2018-05-02T04:28:00.796Z,3.87
2018-05-02T04:30:37.198Z,3.43
2018-05-02T04:33:14.372Z,3.93
2018-05-02T04:35:53.118Z,3.80
2018-05-02T04:38:29.494Z,4.57
2018-05-02T04:41:07.937Z,4.43
2018-05-02T04:43:49.003Z,3.93
2018-05-02T04:46:27.968Z,5.30
2018-05-02T04:49:07.075Z,4.17
2018-05-02T04:51:47.486Z,3.57
2018-05-02T04:54:26.964Z,3.17
2018-05-02T04:57:06.772Z,3.80
2018-05-02T04:59:44.716Z,3.27
2018-05-02T05:02:24.554Z,3.10
2018-05-02T05:05:04.538Z,3.20
2018-05-02T05:07:42.139Z,3.37
2018-05-02T05:10:18.804Z,3.07
2018-05-02T05:12:55.468Z,3.93
2018-05-02T05:15:32.820Z,4.23
2018-05-02T05:18:14.347Z,3.53
2018-05-02T05:20:53.206Z,3.40
2018-05-02T05:23:32.470Z,3.60
2018-05-02T05:26:17.488Z,3.93
2018-05-02T05:28:54.171Z,4.07
2018-05-02T05:31:35.161Z,3.73
2018-05-02T05:34:17.728Z,3.80
2018-05-02T05:36:54.402Z,3.57
2018-05-02T05:39:36.331Z,3.80
2018-05-02T05:42:15.200Z,3.83
2018-05-02T05:44:54.083Z,3.57
2018-05-02T05:47:33.281Z,3.90
2018-05-02T05:50:15.584Z,3.50
2018-05-02T05:52:54.829Z,3.60
2018-05-02T05:55:34.301Z,3.80
2018-05-02T05:58:13.460Z,3.60
2018-05-02T06:00:51.436Z,3.63
2018-05-02T06:03:37.192Z,3.80
2018-05-02T06:06:17.020Z,3.93
2018-05-02T06:08:57.820Z,4.10
2018-05-02T06:11:36.837Z,4.07
2018-05-02T06:14:23.170Z,4.00
2018-05-02T06:17:00.984Z,4.00
2018-05-02T06:19:40.827Z,3.40
2018-05-02T06:22:22.952Z,3.87
2018-05-02T06:25:02.709Z,4.17
2018-05-02T06:27:42.498Z,4.13
2018-05-02T06:30:23.225Z,3.77
2018-05-02T06:33:03.001Z,4.33
2018-05-02T06:35:47.261Z,4.00
2018-05-02T06:38:24.783Z,4.27
2018-05-02T06:41:03.415Z,4.20
2018-05-02T06:43:45.304Z,4.47
2018-05-02T06:46:24.244Z,5.33
2018-05-02T06:49:06.505Z,4.80
2018-05-02T06:51:44.977Z,4.43
2018-05-02T06:54:30.314Z,4.53
2018-05-02T06:57:07.640Z,4.07
2018-05-02T06:59:48.110Z,4.50
2018-05-02T07:02:27.985Z,4.57
2018-05-02T07:05:06.723Z,4.93
2018-05-02T07:07:49.485Z,4.90
2018-05-02T07:10:29.605Z,5.03
2018-05-02T07:13:07.798Z,5.63
2018-05-02T07:15:50.354Z,4.80
2018-05-02T07:18:29.089Z,5.17
2018-05-02T07:21:08.663Z,4.20
2018-05-02T07:23:48.620Z,3.90
2018-05-02T07:26:28.815Z,4.23
2018-05-02T07:29:11.032Z,5.60
2018-05-02T07:31:52.089Z,4.80
2018-05-02T07:34:34.143Z,4.97
2018-05-02T07:37:11.976Z,4.70
2018-05-02T07:39:53.302Z,4.57
2018-05-02T07:42:33.865Z,5.10
2018-05-02T07:45:16.681Z,4.50
2018-05-02T07:47:53.149Z,4.73
2018-05-02T07:50:33.420Z,5.10
2018-05-02T07:53:13.135Z,4.67
2018-05-02T07:55:53.122Z,5.10
2018-05-02T07:58:36.391Z,5.00
2018-05-02T08:01:13.347Z,5.63
2018-05-02T08:03:56.051Z,5.13
2018-05-02T08:06:32.718Z,5.30
2018-05-02T08:12:13.136Z,4.57
2018-05-02T08:15:00.356Z,4.87
2018-05-02T08:17:37.188Z,4.90
2018-05-02T08:20:16.507Z,5.27
2018-05-02T08:22:58.360Z,5.30
2018-05-02T08:25:37.050Z,5.30
2018-05-02T08:28:16.773Z,5.50
2018-05-02T08:30:58.617Z,5.60
2018-05-02T08:33:40.792Z,5.23
2018-05-02T08:36:18.660Z,4.43
2018-05-02T08:39:00.337Z,5.67
2018-05-02T08:41:40.421Z,4.93
2018-05-02T08:44:20.350Z,5.20
2018-05-02T08:46:59.863Z,4.60
2018-05-02T08:49:39.570Z,3.73
2018-05-02T08:52:20.087Z,4.10
2018-05-02T08:55:00.502Z,3.93
2018-05-02T08:57:41.419Z,3.90
2018-05-02T09:00:20.868Z,3.83
2018-05-02T09:03:03.136Z,3.87
2018-05-02T09:05:40.931Z,3.63
2018-05-02T09:08:21.037Z,3.83
2018-05-02T09:11:08.655Z,3.73
2018-05-02T09:13:45.392Z,3.53
2018-05-02T09:16:27.928Z,4.00
2018-05-02T09:19:04.750Z,4.20
2018-05-02T09:21:45.007Z,3.97
2018-05-02T09:24:26.476Z,3.67
2018-05-02T09:27:04.005Z,3.90
2018-05-02T09:29:44.243Z,3.67
2018-05-02T09:32:25.631Z,3.77
2018-05-02T09:35:05.613Z,3.83
2018-05-02T09:37:47.793Z,3.60
2018-05-02T09:40:26.379Z,4.10
2018-05-02T09:43:07.526Z,3.90
2018-05-02T09:45:48.180Z,3.90
2018-05-02T09:48:28.343Z,3.80
2018-05-02T09:51:12.749Z,3.97
2018-05-02T09:53:49.320Z,3.87
2018-05-02T09:56:29.703Z,3.63
2018-05-02T09:59:08.245Z,3.60
2018-05-02T10:04:35.208Z,3.70
2018-05-02T10:07:12.575Z,3.90
2018-05-02T10:09:52.928Z,3.70
2018-05-02T10:12:30.370Z,3.73
2018-05-02T10:15:09.761Z,3.50
2018-05-02T10:17:49.697Z,3.73
2018-05-02T10:20:31.773Z,4.03
2018-05-02T10:23:11.416Z,3.30
2018-05-02T10:25:52.348Z,4.00
2018-05-02T10:28:29.099Z,3.60
2018-05-02T10:31:09.974Z,3.47
2018-05-02T10:33:51.450Z,3.87
2018-05-02T10:36:37.121Z,3.77
2018-05-02T10:39:13.754Z,4.37
2018-05-02T10:41:52.625Z,4.60
2018-05-02T10:44:31.888Z,3.80
2018-05-02T10:47:14.470Z,3.70
2018-05-02T10:49:53.300Z,3.90
2018-05-02T10:52:35.527Z,3.90
2018-05-02T10:55:14.119Z,4.30
2018-05-02T10:57:59.644Z,3.60
2018-05-02T11:00:36.323Z,4.10
2018-05-02T11:03:21.319Z,3.70
2018-05-02T11:05:59.992Z,4.13
2018-05-02T11:08:40.504Z,4.20
2018-05-02T11:11:20.111Z,4.00
2018-05-02T11:13:58.044Z,4.07
2018-05-02T11:16:37.278Z,4.50
2018-05-02T11:19:23.418Z,4.00
2018-05-02T11:22:00.029Z,4.00
2018-05-02T11:24:41.640Z,4.03
2018-05-02T11:27:20.049Z,3.63
2018-05-02T11:30:00.683Z,4.60
2018-05-02T11:32:42.807Z,4.20
2018-05-02T11:35:22.128Z,4.77
2018-05-02T11:38:04.257Z,4.20
2018-05-02T11:40:43.485Z,4.17
2018-05-02T11:43:21.038Z,4.17
2018-05-02T11:45:58.889Z,3.90
2018-05-02T11:48:47.970Z,3.93
2018-05-02T11:51:24.636Z,4.10
2018-05-02T11:54:02.110Z,4.60
2018-05-02T11:56:46.149Z,4.60
2018-05-02T11:59:22.898Z,4.17
2018-05-02T12:02:00.647Z,4.33
2018-05-02T12:04:42.119Z,4.10
2018-05-02T12:10:23.434Z,4.07
2018-05-02T12:13:08.226Z,4.20
2018-05-02T12:15:52.150Z,4.63
2018-05-02T12:18:34.183Z,4.43
2018-05-02T12:27:02.625Z,4.30
2018-05-02T12:29:50.295Z,4.40
2018-05-02T12:32:27.621Z,5.00
2018-05-02T12:35:11.455Z,4.80
2018-05-02T12:37:48.282Z,4.50
2018-05-02T12:40:28.226Z,4.60
2018-05-02T12:43:09.076Z,4.10
2018-05-02T12:45:48.598Z,4.70
2018-05-02T12:48:35.753Z,4.40
2018-05-02T12:51:14.434Z,4.30
2018-05-02T12:53:52.955Z,4.30
2018-05-02T12:56:36.339Z,4.70
2018-05-02T13:02:13.883Z,4.37
2018-05-02T13:04:55.314Z,4.30
2018-05-02T13:07:34.725Z,4.77
2018-05-02T13:10:11.577Z,4.80
2018-05-02T13:12:54.244Z,4.73
2018-05-02T13:15:32.288Z,4.97
2018-05-02T13:18:34.139Z,5.00
2018-05-02T13:21:30.083Z,5.07
2018-05-02T13:24:19.284Z,5.33
2018-05-02T13:27:09.602Z,5.50
2018-05-02T13:29:51.278Z,5.30
2018-05-02T13:32:41.119Z,5.00
2018-05-02T13:35:21.393Z,5.50
2018-05-02T13:37:58.366Z,5.00
2018-05-02T13:41:00.843Z,5.57
2018-05-02T13:43:53.352Z,5.80
2018-05-02T13:46:39.509Z,5.40
2018-05-02T13:52:15.869Z,5.10
2018-05-02T13:54:55.000Z,5.27
2018-05-02T13:57:37.520Z,5.57
2018-05-02T14:00:16.280Z,5.73
2018-05-02T14:02:56.649Z,4.97
2018-05-02T14:05:41.041Z,6.37
2018-05-02T14:08:18.198Z,5.47
2018-05-02T14:11:03.164Z,5.70
2018-05-02T14:13:39.862Z,5.30
2018-05-02T14:16:20.415Z,5.80
2018-05-02T14:19:03.175Z,5.27
2018-05-02T14:26:19.932Z,5.30
2018-05-02T14:29:04.287Z,5.40
2018-05-02T14:31:46.477Z,5.50
2018-05-02T14:34:22.830Z,5.10
2018-05-02T14:37:05.289Z,5.20
2018-05-02T14:39:42.820Z,4.97
2018-05-02T14:42:26.117Z,5.10
2018-05-02T14:45:11.939Z,5.40
2018-05-02T14:47:56.960Z,5.50
2018-05-02T14:50:42.001Z,4.80
2018-05-02T14:53:24.321Z,5.13
2018-05-02T14:56:08.529Z,4.97
2018-05-02T14:58:52.407Z,4.90
2018-05-02T15:01:30.963Z,5.13
2018-05-02T15:04:07.581Z,5.37
2018-05-02T15:06:45.254Z,5.07
2018-05-02T15:09:25.887Z,4.80
2018-05-02T15:12:10.613Z,4.90
2018-05-02T15:14:48.337Z,5.00
2018-05-02T15:17:24.992Z,5.03
2018-05-02T15:20:12.999Z,5.07
2018-05-02T15:22:53.640Z,6.03
2018-05-02T15:25:30.134Z,4.20
2018-05-02T15:28:14.564Z,4.43
2018-05-02T15:30:54.000Z,4.90
2018-05-02T15:33:31.034Z,5.20
2018-05-02T15:36:13.136Z,4.80
2018-05-02T15:38:50.014Z,4.90
2018-05-02T15:41:31.790Z,4.40
2018-05-02T15:44:08.232Z,4.60
2018-05-02T15:46:52.911Z,4.40
2018-05-02T15:49:29.508Z,4.43
2018-05-02T15:52:10.531Z,4.60
2018-05-02T15:54:50.987Z,4.67
2018-05-02T15:57:30.404Z,4.60
2018-05-02T16:00:12.563Z,5.00
2018-05-02T16:02:49.912Z,4.93
2018-05-02T16:05:29.504Z,5.40
2018-05-02T16:08:11.827Z,4.87
2018-05-02T16:10:53.690Z,5.00
2018-05-02T16:13:31.710Z,4.30
2018-05-02T16:16:12.184Z,5.20
2018-05-02T16:18:57.067Z,4.47
2018-05-02T16:21:33.819Z,4.20
2018-05-02T16:24:17.924Z,4.33
2018-05-02T16:26:54.479Z,4.23
2018-05-02T16:29:34.384Z,4.20
2018-05-02T16:32:14.690Z,4.10
2018-05-02T16:34:54.525Z,4.83
2018-05-02T16:37:36.479Z,4.67
2018-05-02T16:40:18.328Z,4.77
2018-05-02T16:42:55.853Z,4.27
2018-05-02T16:45:35.861Z,4.33
2018-05-02T16:48:18.750Z,4.40
2018-05-02T16:50:59.665Z,4.03
2018-05-02T16:53:45.384Z,4.93
2018-05-02T16:56:37.463Z,4.43
2018-05-02T16:59:20.197Z,4.70
2018-05-02T17:04:57.350Z,4.97
2018-05-02T17:46:21.587Z,4.03
2018-05-02T17:49:01.878Z,4.80
2018-05-02T17:51:42.460Z,4.73
2018-05-02T17:54:24.472Z,4.47
2018-05-02T17:57:04.532Z,5.33
2018-05-02T17:59:47.820Z,4.93
2018-05-02T18:02:24.551Z,5.00
2018-05-02T18:05:05.241Z,5.13
2018-05-02T18:07:45.896Z,5.03
2018-05-02T18:10:27.222Z,5.23
2018-05-02T18:13:06.669Z,5.60
2018-05-02T18:15:49.370Z,4.83
2018-05-02T18:18:25.922Z,4.63
2018-05-02T18:21:07.105Z,5.80
2018-05-02T18:23:48.971Z,4.67
2018-05-02T18:26:28.904Z,4.97
2018-05-02T18:29:08.651Z,4.57
2018-05-02T18:31:48.045Z,5.13
2018-05-02T18:34:30.319Z,4.80
2018-05-02T18:37:11.175Z,5.37
2018-05-02T18:39:53.753Z,5.40
2018-05-02T18:42:30.287Z,5.07
2018-05-02T18:45:09.880Z,4.67
2018-05-02T18:47:50.965Z,4.87
2018-05-02T18:50:30.443Z,4.70
2018-05-02T18:53:12.903Z,6.77
2018-05-02T18:55:53.292Z,4.53
2018-05-02T18:58:32.198Z,4.60
2018-05-02T19:01:14.279Z,4.60
2018-05-02T19:03:54.103Z,5.10
2018-05-02T19:06:33.583Z,4.17
2018-05-02T19:09:15.716Z,4.50
2018-05-02T19:11:55.292Z,4.43
2018-05-02T19:14:36.369Z,4.73
2018-05-02T19:17:15.091Z,4.83
2018-05-02T19:20:00.825Z,4.60
2018-05-02T19:22:37.450Z,4.30
2018-05-02T19:25:20.667Z,4.93
2018-05-02T19:27:57.347Z,4.70
2018-05-02T19:30:40.489Z,5.00
2018-05-02T19:34:19.805Z,4.37
2018-05-02T19:36:59.076Z,5.00
2018-05-02T19:39:42.547Z,4.80
2018-05-02T19:44:26.167Z,4.37
2018-05-02T19:47:03.120Z,4.30
2018-05-02T19:49:40.005Z,4.60
2018-05-02T19:52:56.092Z,4.60
2018-05-02T19:55:35.633Z,4.40
2018-05-02T20:00:58.293Z,4.63
2018-05-02T20:03:37.811Z,5.00
2018-05-02T20:06:19.581Z,4.33
2018-05-02T20:09:03.959Z,4.43
2018-05-02T20:13:46.617Z,4.30
2018-05-02T20:16:23.444Z,4.60
2018-05-02T20:19:00.944Z,4.57
2018-05-02T20:21:43.906Z,3.97
2018-05-02T20:24:22.303Z,4.40
2018-05-02T20:27:02.178Z,4.10
2018-05-02T20:29:44.238Z,4.50
2018-05-02T20:32:24.013Z,4.20
2018-05-02T20:35:03.271Z,4.23
2018-05-02T20:37:42.353Z,4.47
2018-05-02T20:40:23.534Z,4.97
2018-05-02T20:43:03.279Z,4.73
2018-05-02T20:45:44.930Z,4.90
2018-05-02T20:48:24.292Z,4.90
2018-05-02T20:51:03.379Z,5.20
2018-05-02T20:53:44.524Z,5.10
2018-05-02T20:56:26.083Z,5.30
2018-05-02T20:59:05.287Z,4.70
2018-05-02T21:01:46.455Z,5.37
2018-05-02T21:04:25.349Z,5.33
2018-05-02T21:07:05.335Z,5.47
2018-05-02T21:09:46.828Z,4.93
2018-05-02T21:12:25.799Z,5.73
2018-05-02T21:15:06.146Z,5.50
2018-05-02T21:17:45.242Z,5.60
2018-05-02T21:20:21.928Z,5.57
2018-05-02T21:22:58.687Z,5.30
2018-05-02T21:25:35.449Z,5.70
2018-05-02T21:28:12.079Z,5.80
2018-05-02T21:30:54.111Z,5.30
2018-05-02T21:33:31.145Z,5.67
2018-05-02T21:36:10.112Z,6.80
2018-05-02T21:38:51.918Z,6.47
2018-05-02T21:41:31.630Z,6.37
2018-05-02T21:44:10.800Z,6.20
2018-05-02T21:46:49.608Z,5.70
2018-05-02T21:49:30.031Z,5.97
2018-05-02T21:52:07.067Z,6.00
2018-05-02T21:54:46.634Z,5.53
2018-05-02T21:57:26.600Z,5.60
2018-05-02T22:00:03.578Z,5.77
2018-05-02T22:02:40.877Z,5.57
2018-05-02T22:05:17.401Z,6.03
2018-05-02T22:07:58.351Z,6.13
2018-05-02T22:10:35.797Z,5.80
2018-05-02T22:13:14.012Z,6.63
2018-05-02T22:15:54.156Z,6.13
2018-05-02T22:18:33.195Z,6.70
2018-05-02T22:21:12.434Z,5.97
2018-05-02T22:23:49.621Z,5.83
2018-05-02T22:26:25.973Z,5.90
2018-05-02T22:29:03.520Z,6.30
2018-05-02T22:31:40.981Z,6.33
2018-05-02T22:34:18.914Z,6.20
2018-05-02T22:36:57.604Z,6.57
2018-05-02T22:39:36.255Z,6.17
2018-05-02T22:42:13.071Z,6.27
2018-05-02T22:44:53.727Z,6.37
2018-05-02T22:47:36.472Z,6.30
2018-05-02T22:50:14.169Z,6.07
2018-05-02T22:52:52.867Z,6.50
2018-05-02T22:55:29.420Z,6.80
2018-05-02T22:58:06.202Z,6.33
2018-05-02T23:00:46.188Z,6.27
2018-05-02T23:03:23.393Z,6.63
2018-05-02T23:06:02.091Z,6.40
2018-05-02T23:08:43.649Z,6.70
2018-05-02T23:11:23.442Z,6.10
2018-05-02T23:14:03.303Z,6.27
2018-05-02T23:16:45.092Z,6.03
2018-05-02T23:19:24.099Z,6.53
2018-05-02T23:22:00.785Z,6.17
2018-05-02T23:24:37.858Z,6.13
2018-05-02T23:27:16.400Z,6.50
2018-05-02T23:29:53.892Z,5.97
2018-05-02T23:32:30.683Z,6.30
2018-05-02T23:35:08.725Z,5.97
2018-05-02T23:37:47.320Z,6.40
2018-05-02T23:40:29.775Z,6.30
2018-05-02T23:43:07.252Z,6.27
2018-05-02T23:45:46.389Z,6.47
2018-05-02T23:48:27.446Z,6.77
2018-05-02T23:51:04.159Z,6.03
2018-05-02T23:53:41.174Z,6.70
2018-05-02T23:56:21.285Z,7.10
2018-05-02T23:58:58.118Z,7.27
